createdAt,value
2019-01-09T00:00:34.631Z,89.28
2019-01-09T00:03:01.997Z,89.40
2019-01-09T00:05:29.545Z,89.23
2019-01-09T00:07:56.964Z,89.17
2019-01-09T00:10:24.334Z,89.11
2019-01-09T00:12:51.676Z,89.15
2019-01-09T00:15:19.082Z,89.05
2019-01-09T00:17:46.553Z,89.01
2019-01-09T00:20:14.026Z,89.03
2019-01-09T00:22:41.451Z,89.14
2019-01-09T00:25:08.971Z,89.59
2019-01-09T00:27:36.449Z,89.55
2019-01-09T00:30:04.292Z,89.41
2019-01-09T00:32:31.704Z,89.21
2019-01-09T00:34:59.168Z,89.16
2019-01-09T00:37:26.578Z,89.37
2019-01-09T00:39:53.982Z,89.24
2019-01-09T00:42:21.521Z,89.27
2019-01-09T00:44:49.238Z,89.39
2019-01-09T00:47:16.714Z,89.44
2019-01-09T00:49:44.166Z,89.31
2019-01-09T00:52:11.572Z,89.13
2019-01-09T00:54:38.902Z,89.13
2019-01-09T00:57:06.895Z,89.15
2019-01-09T00:59:34.606Z,89.07
2019-01-09T01:02:12.516Z,89.20
2019-01-09T01:04:47.403Z,89.19
2019-01-09T01:07:38.171Z,89.09
2019-01-09T01:10:43.192Z,88.94
2019-01-09T01:13:42.294Z,88.97
2019-01-09T01:16:28.041Z,88.78
2019-01-09T01:19:21.048Z,88.60
2019-01-09T01:21:51.545Z,88.77
2019-01-09T01:24:25.331Z,88.82
2019-01-09T01:27:04.561Z,88.93
2019-01-09T01:29:50.171Z,89.00
2019-01-09T01:32:40.286Z,89.11
2019-01-09T01:35:27.632Z,89.26
2019-01-09T01:38:29.908Z,89.41
2019-01-09T01:41:05.995Z,89.48
2019-01-09T01:44:01.920Z,89.62
2019-01-09T01:46:47.632Z,89.49
2019-01-09T01:49:20.558Z,89.53
2019-01-09T01:52:03.806Z,89.64
2019-01-09T01:54:40.050Z,89.67
2019-01-09T02:09:56.051Z,90.51
2019-01-09T02:13:01.290Z,90.69
2019-01-09T02:15:53.146Z,91.03
2019-01-09T02:18:22.938Z,91.29
2019-01-09T02:21:11.750Z,91.39
2019-01-09T02:23:57.510Z,91.34
2019-01-09T02:26:47.462Z,91.41
2019-01-09T02:29:34.350Z,91.49
2019-01-09T02:32:09.102Z,91.72
2019-01-09T02:34:36.451Z,91.80
2019-01-09T02:37:03.888Z,91.61
2019-01-09T02:39:31.267Z,91.64
2019-01-09T02:41:58.611Z,91.43
2019-01-09T02:44:32.163Z,91.35
2019-01-09T02:46:55.571Z,91.41
2019-01-09T02:49:23.017Z,91.18
2019-01-09T02:51:50.732Z,91.01
2019-01-09T02:54:18.210Z,90.85
2019-01-09T02:56:45.586Z,90.89
2019-01-09T02:59:12.972Z,91.04
2019-01-09T03:01:40.326Z,91.32
2019-01-09T03:04:07.724Z,91.39
2019-01-09T03:06:35.174Z,91.25
2019-01-09T03:09:03.364Z,91.48
2019-01-09T03:11:30.790Z,91.35
2019-01-09T03:13:58.144Z,91.51
2019-01-09T03:16:25.512Z,91.62
2019-01-09T03:18:52.884Z,91.77
2019-01-09T03:21:22.388Z,91.66
2019-01-09T03:23:49.499Z,91.59
2019-01-09T03:26:16.914Z,91.58
2019-01-09T03:28:44.295Z,91.41
2019-01-09T03:31:11.696Z,91.48
2019-01-09T03:33:39.403Z,91.38
2019-01-09T03:36:06.746Z,91.20
2019-01-09T03:38:34.095Z,91.08
2019-01-09T03:41:01.468Z,91.20
2019-01-09T03:43:28.854Z,90.93
2019-01-09T03:45:56.893Z,90.98
2019-01-09T03:48:24.248Z,91.20
2019-01-09T03:50:51.643Z,91.32
2019-01-09T03:53:19.002Z,91.43
2019-01-09T03:55:46.611Z,91.35
2019-01-09T03:58:13.993Z,91.35
2019-01-09T04:00:41.346Z,91.35
2019-01-09T04:03:08.723Z,91.57
2019-01-09T04:05:36.095Z,91.60
2019-01-09T04:08:03.486Z,91.48
2019-01-09T04:10:30.842Z,91.35
2019-01-09T04:12:58.515Z,91.25
2019-01-09T04:15:25.897Z,91.11
2019-01-09T04:17:53.256Z,91.08
2019-01-09T04:20:20.643Z,91.00
2019-01-09T04:22:47.998Z,90.97
2019-01-09T04:25:18.316Z,90.92
2019-01-09T04:27:45.710Z,91.12
2019-01-09T04:30:13.055Z,91.19
2019-01-09T04:32:40.469Z,91.11
2019-01-09T04:35:07.998Z,91.13
2019-01-09T04:37:35.360Z,90.96
2019-01-09T04:40:03.239Z,90.91
2019-01-09T04:42:30.627Z,90.84
2019-01-09T04:44:58.066Z,90.81
2019-01-09T04:47:25.473Z,90.86
2019-01-09T04:49:52.826Z,90.86
2019-01-09T04:52:20.245Z,90.67
2019-01-09T04:54:47.587Z,90.95
2019-01-09T04:57:14.967Z,90.98
2019-01-09T04:59:42.357Z,90.94
2019-01-09T05:02:09.697Z,90.99
2019-01-09T05:04:37.078Z,90.92
2019-01-09T05:07:04.429Z,90.70
2019-01-09T05:09:31.769Z,90.82
2019-01-09T05:11:59.423Z,90.94
2019-01-09T05:14:26.771Z,90.80
2019-01-09T05:16:54.209Z,91.10
2019-01-09T05:19:21.679Z,91.24
2019-01-09T05:21:49.186Z,91.50
2019-01-09T05:24:16.648Z,91.52
2019-01-09T05:26:43.994Z,91.61
2019-01-09T05:29:11.379Z,91.53
2019-01-09T05:31:38.741Z,91.26
2019-01-09T05:34:06.119Z,90.90
2019-01-09T05:36:33.633Z,91.05
2019-01-09T05:39:01.011Z,91.00
2019-01-09T05:41:28.394Z,90.98
2019-01-09T05:43:55.824Z,90.78
2019-01-09T05:46:23.268Z,90.63
2019-01-09T05:48:50.642Z,90.51
2019-01-09T05:51:18.055Z,90.73
2019-01-09T05:53:45.502Z,90.66
2019-01-09T05:56:12.868Z,90.67
2019-01-09T05:58:40.222Z,90.78
2019-01-09T06:01:07.611Z,90.72
2019-01-09T06:03:34.954Z,90.84
2019-01-09T06:06:02.563Z,90.83
2019-01-09T06:08:29.951Z,90.65
2019-01-09T06:10:57.308Z,90.35
2019-01-09T06:13:24.866Z,90.46
2019-01-09T06:15:52.274Z,90.24
2019-01-09T06:18:19.647Z,90.29
2019-01-09T06:20:47.310Z,90.31
2019-01-09T06:23:14.665Z,90.18
2019-01-09T06:25:42.102Z,90.13
2019-01-09T06:28:10.256Z,90.05
2019-01-09T06:30:37.587Z,90.15
2019-01-09T06:33:05.001Z,90.04
2019-01-09T06:35:32.689Z,89.96
2019-01-09T06:38:00.128Z,90.00
2019-01-09T06:40:27.482Z,90.09
2019-01-09T06:42:55.128Z,89.74
2019-01-09T06:45:22.484Z,89.71
2019-01-09T06:47:49.932Z,89.69
2019-01-09T06:50:18.131Z,89.57
2019-01-09T06:52:45.483Z,89.51
2019-01-09T06:55:13.161Z,89.72
2019-01-09T06:57:40.779Z,89.99
2019-01-09T07:00:08.410Z,90.08
2019-01-09T07:02:36.214Z,90.14
2019-01-09T07:05:03.736Z,89.88
2019-01-09T07:07:35.974Z,89.76
2019-01-09T07:10:01.589Z,89.61
2019-01-09T07:12:29.142Z,89.58
2019-01-09T07:14:56.499Z,89.61
2019-01-09T07:17:23.918Z,89.48
2019-01-09T07:19:51.252Z,89.71
2019-01-09T07:22:18.646Z,89.80
2019-01-09T07:24:46.045Z,90.00
2019-01-09T07:27:13.429Z,89.88
2019-01-09T07:29:41.231Z,89.87
2019-01-09T07:32:08.678Z,89.68
2019-01-09T07:34:36.043Z,89.63
2019-01-09T07:37:03.697Z,89.65
2019-01-09T07:39:31.036Z,89.72
2019-01-09T07:41:58.387Z,89.59
2019-01-09T07:44:25.834Z,89.46
2019-01-09T07:46:53.174Z,89.53
2019-01-09T07:49:20.556Z,89.24
2019-01-09T07:51:48.014Z,89.15
2019-01-09T07:54:15.367Z,89.02
2019-01-09T07:56:42.712Z,89.10
2019-01-09T07:59:10.377Z,89.05
2019-01-09T08:01:37.759Z,88.94
2019-01-09T08:04:05.095Z,88.82
2019-01-09T08:06:32.751Z,88.60
2019-01-09T08:09:00.118Z,88.73
2019-01-09T08:11:27.493Z,88.70
2019-01-09T08:13:54.959Z,88.49
2019-01-09T08:16:22.296Z,88.48
2019-01-09T08:18:49.679Z,88.20
2019-01-09T08:21:17.027Z,88.15
2019-01-09T08:23:44.386Z,87.50
2019-01-09T08:26:11.774Z,87.54
2019-01-09T08:28:39.118Z,87.37
2019-01-09T08:31:06.622Z,87.41
2019-01-09T08:33:34.376Z,87.06
2019-01-09T08:36:01.753Z,87.04
2019-01-09T08:38:29.203Z,86.70
2019-01-09T08:40:56.838Z,86.67
2019-01-09T08:43:24.187Z,87.10
2019-01-09T08:45:51.542Z,87.16
2019-01-09T08:48:19.409Z,87.06
2019-01-09T08:50:46.893Z,87.28
2019-01-09T08:53:14.268Z,87.37
2019-01-09T08:55:41.642Z,87.31
2019-01-09T08:58:09.078Z,87.48
2019-01-09T09:00:36.432Z,87.32
2019-01-09T09:03:03.821Z,87.09
2019-01-09T09:05:31.194Z,86.83
2019-01-09T09:07:59.878Z,86.84
2019-01-09T09:10:27.225Z,86.91
2019-01-09T09:12:54.611Z,86.82
2019-01-09T09:15:22.008Z,86.91
2019-01-09T09:17:49.361Z,86.86
2019-01-09T09:20:16.742Z,86.59
2019-01-09T09:22:44.092Z,85.82
2019-01-09T09:25:12.071Z,85.37
2019-01-09T09:27:39.474Z,84.90
2019-01-09T09:30:07.706Z,84.97
2019-01-09T09:32:35.082Z,84.02
2019-01-09T09:35:02.515Z,83.85
2019-01-09T09:37:29.911Z,84.06
2019-01-09T09:39:57.286Z,84.03
2019-01-09T09:42:24.666Z,84.18
2019-01-09T09:44:52.099Z,84.17
2019-01-09T09:47:19.563Z,83.71
2019-01-09T09:49:46.966Z,83.85
2019-01-09T09:52:14.425Z,84.43
2019-01-09T09:54:41.888Z,84.19
2019-01-09T09:57:09.247Z,82.90
2019-01-09T09:59:36.666Z,82.82
2019-01-09T10:02:04.084Z,82.04
2019-01-09T10:04:31.455Z,81.65
2019-01-09T10:06:58.854Z,81.75
2019-01-09T10:09:26.258Z,81.08
2019-01-09T10:11:53.702Z,80.92
2019-01-09T10:14:21.122Z,81.11
2019-01-09T10:16:48.561Z,81.44
2019-01-09T10:19:16.023Z,82.08
2019-01-09T10:21:43.392Z,82.51
2019-01-09T10:24:10.813Z,82.24
2019-01-09T10:26:38.299Z,81.69
2019-01-09T10:29:05.776Z,81.40
2019-01-09T10:31:33.127Z,81.40
2019-01-09T10:34:00.558Z,80.97
2019-01-09T10:36:28.116Z,80.84
2019-01-09T10:38:55.461Z,80.61
2019-01-09T10:41:22.818Z,80.05
2019-01-09T10:43:50.218Z,79.24
2019-01-09T10:46:17.693Z,78.70
2019-01-09T10:48:45.310Z,77.38
2019-01-09T10:51:12.854Z,73.80
2019-01-09T10:53:40.287Z,70.36
2019-01-09T10:56:07.962Z,69.18
2019-01-09T10:58:35.384Z,69.47
2019-01-09T11:01:02.976Z,70.19
2019-01-09T11:03:30.370Z,70.91
2019-01-09T11:05:57.710Z,72.18
2019-01-09T11:08:25.098Z,72.49
2019-01-09T11:10:52.445Z,74.27
2019-01-09T11:13:19.853Z,74.97
2019-01-09T11:15:47.335Z,75.32
2019-01-09T11:18:14.692Z,74.23
2019-01-09T11:20:42.037Z,74.70
2019-01-09T11:23:09.412Z,74.64
2019-01-09T11:25:36.776Z,75.22
2019-01-09T11:28:04.368Z,75.43
2019-01-09T11:30:31.715Z,76.01
2019-01-09T11:32:59.077Z,76.37
2019-01-09T11:35:26.894Z,76.20
2019-01-09T11:37:54.278Z,75.92
2019-01-09T11:40:21.793Z,76.17
2019-01-09T11:42:49.255Z,76.87
2019-01-09T11:45:16.922Z,76.95
2019-01-09T11:47:44.407Z,76.47
2019-01-09T11:50:12.355Z,76.35
2019-01-09T11:52:39.886Z,76.33
2019-01-09T11:55:08.262Z,76.59
2019-01-09T11:57:35.690Z,76.78
2019-01-09T12:00:05.092Z,77.08
2019-01-09T12:02:32.517Z,77.38
2019-01-09T12:04:59.970Z,77.92
2019-01-09T12:07:27.499Z,78.07
2019-01-09T12:09:54.885Z,78.33
2019-01-09T12:12:22.276Z,78.14
2019-01-09T12:14:49.692Z,78.92
2019-01-09T12:17:17.203Z,79.21
2019-01-09T12:19:44.573Z,79.41
2019-01-09T12:22:12.043Z,80.04
2019-01-09T12:24:39.398Z,80.80
2019-01-09T12:27:06.950Z,81.05
2019-01-09T12:29:34.351Z,80.94
2019-01-09T12:32:01.723Z,80.12
2019-01-09T12:34:29.154Z,80.17
2019-01-09T12:36:56.645Z,80.05
2019-01-09T12:39:24.003Z,80.55
2019-01-09T12:41:51.422Z,79.82
2019-01-09T12:44:18.774Z,79.64
2019-01-09T12:46:46.146Z,79.27
2019-01-09T12:49:15.318Z,78.67
2019-01-09T12:51:42.701Z,78.53
2019-01-09T12:54:10.078Z,78.79
2019-01-09T12:56:37.551Z,78.53
2019-01-09T12:59:04.950Z,78.35
2019-01-09T13:01:32.319Z,78.28
2019-01-09T13:03:59.742Z,78.86
2019-01-09T13:06:27.091Z,79.25
2019-01-09T13:08:54.775Z,79.41
2019-01-09T13:11:22.286Z,79.35
2019-01-09T13:13:49.647Z,79.36
2019-01-09T13:16:17.035Z,79.34
2019-01-09T13:18:44.794Z,79.45
2019-01-09T13:21:12.134Z,79.47
2019-01-09T13:23:39.499Z,80.20
2019-01-09T13:26:06.894Z,80.62
2019-01-09T13:28:34.239Z,81.11
2019-01-09T13:31:01.645Z,81.49
2019-01-09T13:33:29.026Z,81.70
2019-01-09T13:35:56.470Z,81.90
2019-01-09T13:38:23.898Z,81.67
2019-01-09T13:40:51.285Z,81.72
2019-01-09T13:43:18.630Z,82.10
2019-01-09T13:45:46.023Z,81.59
2019-01-09T13:48:13.433Z,82.06
2019-01-09T13:50:40.919Z,82.48
2019-01-09T13:53:08.300Z,83.08
2019-01-09T13:55:35.669Z,83.57
2019-01-09T13:58:03.346Z,84.16
2019-01-09T14:00:31.193Z,84.87
2019-01-09T14:02:58.636Z,85.96
2019-01-09T14:05:25.991Z,85.99
2019-01-09T14:07:53.375Z,86.26
2019-01-09T14:10:22.281Z,86.39
2019-01-09T14:12:49.718Z,85.99
2019-01-09T14:15:17.840Z,85.95
2019-01-09T14:17:45.698Z,86.09
2019-01-09T14:20:13.161Z,85.91
2019-01-09T14:22:40.654Z,85.59
2019-01-09T14:25:08.526Z,85.72
2019-01-09T14:27:36.022Z,85.46
2019-01-09T14:30:04.801Z,85.20
2019-01-09T14:32:32.158Z,84.47
2019-01-09T14:34:59.966Z,83.91
2019-01-09T14:37:27.442Z,83.78
2019-01-09T14:39:54.800Z,83.82
2019-01-09T14:42:22.162Z,83.86
2019-01-09T14:44:49.549Z,84.06
2019-01-09T14:47:16.902Z,84.39
2019-01-09T14:49:44.290Z,84.48
2019-01-09T14:52:12.043Z,84.50
2019-01-09T14:54:39.404Z,85.16
2019-01-09T14:57:06.742Z,86.35
2019-01-09T14:59:34.435Z,89.73
2019-01-09T15:02:01.866Z,90.19
2019-01-09T15:04:29.227Z,89.89
2019-01-09T15:06:56.694Z,89.88
2019-01-09T15:09:24.101Z,90.50
2019-01-09T15:11:51.499Z,90.95
2019-01-09T15:14:18.915Z,91.53
2019-01-09T15:16:46.397Z,92.04
2019-01-09T15:19:14.312Z,92.71
2019-01-09T15:21:41.775Z,93.34
2019-01-09T15:24:09.151Z,93.65
2019-01-09T15:26:36.643Z,93.60
2019-01-09T15:29:04.072Z,93.57
2019-01-09T15:31:31.558Z,93.27
2019-01-09T15:33:59.071Z,93.00
2019-01-09T15:36:26.604Z,92.69
2019-01-09T15:38:54.149Z,92.69
2019-01-09T15:41:21.743Z,92.21
2019-01-09T15:43:49.235Z,91.80
2019-01-09T15:46:16.754Z,91.68
2019-01-09T15:48:44.171Z,91.55
2019-01-09T15:51:11.621Z,91.54
2019-01-09T15:53:39.035Z,90.77
2019-01-09T15:56:06.481Z,90.33
2019-01-09T15:58:33.940Z,89.91
2019-01-09T16:01:01.320Z,89.32
2019-01-09T16:03:28.772Z,89.14
2019-01-09T16:05:56.265Z,89.37
2019-01-09T16:08:23.670Z,89.27
2019-01-09T16:10:51.936Z,88.71
2019-01-09T16:13:19.372Z,88.42
2019-01-09T16:15:46.842Z,88.33
2019-01-09T16:18:14.234Z,88.29
2019-01-09T16:20:41.692Z,88.23
2019-01-09T16:23:09.096Z,88.34
2019-01-09T16:25:36.519Z,87.27
2019-01-09T16:28:06.312Z,86.97
2019-01-09T16:30:58.554Z,86.58
2019-01-09T16:33:26.046Z,87.03
2019-01-09T16:35:53.471Z,86.42
2019-01-09T16:38:20.961Z,86.05
2019-01-09T16:40:48.464Z,85.84
2019-01-09T16:43:15.945Z,85.62
2019-01-09T16:45:43.469Z,84.69
2019-01-09T16:48:11.027Z,84.65
2019-01-09T16:50:38.550Z,84.98
2019-01-09T16:53:06.023Z,84.85
2019-01-09T16:55:33.531Z,85.03
2019-01-09T16:58:00.966Z,84.63
2019-01-09T17:00:28.984Z,84.22
2019-01-09T17:02:56.499Z,84.14
2019-01-09T17:05:23.978Z,84.39
2019-01-09T17:07:52.108Z,84.73
2019-01-09T17:10:19.560Z,84.64
2019-01-09T17:12:47.075Z,84.78
2019-01-09T17:15:15.719Z,84.78
2019-01-09T17:17:43.241Z,84.98
2019-01-09T17:20:12.114Z,85.22
2019-01-09T17:22:39.515Z,85.18
2019-01-09T17:25:07.469Z,85.46
2019-01-09T17:27:35.170Z,85.59
2019-01-09T17:30:04.091Z,86.14
2019-01-09T17:32:31.603Z,86.24
2019-01-09T17:34:59.559Z,86.46
2019-01-09T17:37:26.998Z,86.49
2019-01-09T17:39:54.417Z,86.64
2019-01-09T17:42:21.921Z,86.30
2019-01-09T17:44:49.703Z,86.41
2019-01-09T17:47:17.487Z,86.55
2019-01-09T17:49:44.976Z,86.36
2019-01-09T17:52:12.503Z,86.64
2019-01-09T17:54:40.006Z,86.91
2019-01-09T17:57:07.435Z,87.04
2019-01-09T17:59:34.942Z,87.27
2019-01-09T18:02:02.481Z,87.47
2019-01-09T18:04:29.956Z,87.89
2019-01-09T18:06:57.459Z,88.04
2019-01-09T18:09:24.834Z,88.38
2019-01-09T18:11:52.346Z,88.75
2019-01-09T18:14:19.777Z,88.93
2019-01-09T18:16:47.173Z,88.83
2019-01-09T18:19:14.586Z,89.17
2019-01-09T18:21:42.194Z,89.32
2019-01-09T18:24:09.691Z,89.23
2019-01-09T18:26:37.451Z,89.08
2019-01-09T18:29:05.213Z,88.84
2019-01-09T18:32:07.203Z,88.43
2019-01-09T18:34:57.153Z,88.26
2019-01-09T18:37:47.035Z,88.75
2019-01-09T18:40:42.830Z,88.85
2019-01-09T18:43:32.804Z,88.93
2019-01-09T18:46:10.415Z,88.99
2019-01-09T18:49:00.211Z,89.27
2019-01-09T18:51:41.545Z,89.15
2019-01-09T18:54:09.058Z,89.00
2019-01-09T18:56:36.536Z,88.86
2019-01-09T18:59:04.129Z,88.92
2019-01-09T19:01:31.519Z,89.30
2019-01-09T19:03:59.095Z,89.37
2019-01-09T19:06:34.827Z,89.44
2019-01-09T19:08:55.866Z,89.37
2019-01-09T19:11:23.387Z,89.06
2019-01-09T19:13:51.154Z,89.15
2019-01-09T19:16:18.800Z,89.32
2019-01-09T19:18:46.262Z,89.29
2019-01-09T19:21:13.644Z,89.12
2019-01-09T19:23:41.507Z,89.10
2019-01-09T19:26:09.090Z,88.86
2019-01-09T19:28:36.514Z,88.94
2019-01-09T19:31:04.233Z,88.95
2019-01-09T19:33:31.742Z,89.01
2019-01-09T19:35:59.325Z,88.76
2019-01-09T19:38:26.862Z,88.64
2019-01-09T19:40:54.372Z,88.56
2019-01-09T19:43:21.844Z,88.56
2019-01-09T19:45:49.260Z,87.96
2019-01-09T19:48:16.767Z,87.80
2019-01-09T19:50:44.158Z,87.73
2019-01-09T19:53:11.620Z,87.65
2019-01-09T19:55:39.039Z,87.94
2019-01-09T19:58:06.613Z,87.86
2019-01-09T20:00:34.196Z,87.93
2019-01-09T20:03:03.191Z,88.00
2019-01-09T20:05:30.692Z,88.03
2019-01-09T20:07:58.110Z,88.42
2019-01-09T20:10:26.219Z,88.39
2019-01-09T20:12:53.689Z,88.51
2019-01-09T20:15:21.386Z,88.70
2019-01-09T20:17:48.817Z,88.83
2019-01-09T20:20:16.732Z,88.95
2019-01-09T20:22:44.319Z,89.05
2019-01-09T20:25:12.458Z,89.28
2019-01-09T20:27:39.874Z,89.35
2019-01-09T20:30:09.614Z,89.27
2019-01-09T20:32:37.020Z,89.01
2019-01-09T20:35:04.547Z,89.06
2019-01-09T20:37:31.914Z,88.98
2019-01-09T20:39:59.555Z,89.28
2019-01-09T20:42:27.019Z,89.59
2019-01-09T20:44:54.418Z,89.30
2019-01-09T20:47:21.903Z,89.58
2019-01-09T20:49:49.555Z,89.65
2019-01-09T20:52:17.018Z,89.35
2019-01-09T20:54:44.487Z,89.15
2019-01-09T20:57:12.331Z,89.36
2019-01-09T20:59:39.789Z,89.01
2019-01-09T21:02:07.299Z,89.06
2019-01-09T21:04:34.740Z,89.21
2019-01-09T21:07:02.653Z,88.96
2019-01-09T21:09:30.214Z,88.91
2019-01-09T21:11:57.612Z,88.97
2019-01-09T21:14:25.034Z,88.88
2019-01-09T21:16:52.613Z,88.80
2019-01-09T21:19:20.244Z,88.89
2019-01-09T21:21:48.905Z,88.51
2019-01-09T21:24:16.427Z,88.18
2019-01-09T21:26:43.859Z,88.05
2019-01-09T21:29:11.296Z,88.33
2019-01-09T21:31:38.790Z,88.34
2019-01-09T21:34:06.215Z,88.14
2019-01-09T21:36:33.698Z,88.07
2019-01-09T21:39:01.172Z,88.00
2019-01-09T21:41:28.527Z,88.02
2019-01-09T21:43:55.930Z,87.86
2019-01-09T21:46:23.345Z,87.73
2019-01-09T21:48:50.785Z,87.47
2019-01-09T21:51:18.298Z,87.67
2019-01-09T21:53:45.790Z,87.66
2019-01-09T21:56:13.238Z,87.50
2019-01-09T21:58:41.036Z,87.67
2019-01-09T22:01:08.407Z,87.64
2019-01-09T22:03:35.763Z,87.63
2019-01-09T22:06:03.584Z,87.73
2019-01-09T22:08:30.953Z,87.83
2019-01-09T22:10:58.383Z,87.71
2019-01-09T22:13:25.775Z,87.46
2019-01-09T22:15:53.121Z,87.19
2019-01-09T22:18:20.506Z,87.31
2019-01-09T22:20:48.119Z,87.25
2019-01-09T22:23:15.490Z,87.22
2019-01-09T22:25:43.068Z,87.15
2019-01-09T22:28:10.531Z,87.30
2019-01-09T22:30:37.912Z,86.85
2019-01-09T22:33:05.358Z,86.72
2019-01-09T22:35:41.080Z,86.60
2019-01-09T22:38:02.032Z,86.70
2019-01-09T22:40:29.390Z,86.67
2019-01-09T22:42:57.299Z,86.47
2019-01-09T22:45:24.664Z,86.49
2019-01-09T22:47:52.062Z,86.66
2019-01-09T22:50:20.399Z,86.46
2019-01-09T22:52:47.739Z,86.06
2019-01-09T22:55:15.174Z,86.09
2019-01-09T22:57:42.735Z,85.83
2019-01-09T23:00:20.831Z,85.86
2019-01-09T23:02:48.219Z,85.99
2019-01-09T23:05:15.603Z,86.17
2019-01-09T23:07:42.984Z,85.98
2019-01-09T23:10:10.451Z,85.93
2019-01-09T23:12:37.824Z,85.95
2019-01-09T23:15:05.276Z,86.27
2019-01-09T23:17:32.751Z,86.15
2019-01-09T23:20:00.207Z,86.17
2019-01-09T23:22:27.646Z,86.19
2019-01-09T23:24:55.129Z,86.22
2019-01-09T23:27:22.664Z,86.53
2019-01-09T23:29:50.166Z,86.47
2019-01-09T23:32:17.864Z,86.30
2019-01-09T23:34:45.349Z,86.16
2019-01-09T23:37:12.739Z,86.25
2019-01-09T23:39:40.143Z,86.02
2019-01-09T23:42:07.538Z,85.94
2019-01-09T23:44:34.909Z,85.68
2019-01-09T23:47:02.293Z,85.90
2019-01-09T23:49:29.714Z,85.59
2019-01-09T23:51:57.086Z,85.32
2019-01-09T23:54:24.434Z,85.41
2019-01-09T23:56:51.854Z,85.69
2019-01-09T23:59:19.218Z,86.04
